sensor_id;sensor_type;location;lat;lon;timestamp;pressure;altitude;pressure_sealevel;temperature;humidity
59055;BME280;44845;51.444;7.460;2022-10-26T00:03:28;99654.97;;;11.86;78.66
59055;BME280;44845;51.444;7.460;2022-10-26T00:05:53;99659.34;;;11.86;78.88
59055;BME280;44845;51.444;7.460;2022-10-26T00:08:19;99654.00;;;11.92;78.84
59055;BME280;44845;51.444;7.460;2022-10-26T00:10:44;99654.06;;;11.89;79.00
59055;BME280;44845;51.444;7.460;2022-10-26T00:13:11;99648.78;;;11.89;78.81
59055;BME280;44845;51.444;7.460;2022-10-26T00:15:40;99642.63;;;11.91;78.79
59055;BME280;44845;51.444;7.460;2022-10-26T00:18:07;99641.72;;;11.94;79.09
59055;BME280;44845;51.444;7.460;2022-10-26T00:20:32;99641.72;;;11.94;79.12
59055;BME280;44845;51.444;7.460;2022-10-26T00:22:57;99641.63;;;11.97;79.13
59055;BME280;44845;51.444;7.460;2022-10-26T00:25:23;99643.34;;;12.00;78.81
59055;BME280;44845;51.444;7.460;2022-10-26T00:27:48;99639.88;;;11.99;79.07
59055;BME280;44845;51.444;7.460;2022-10-26T00:30:13;99647.72;;;12.01;79.01
59055;BME280;44845;51.444;7.460;2022-10-26T00:32:39;99638.97;;;12.00;79.19
59055;BME280;44845;51.444;7.460;2022-10-26T00:35:04;99642.34;;;12.07;79.19
59055;BME280;44845;51.444;7.460;2022-10-26T00:37:30;99639.72;;;12.09;78.98
59055;BME280;44845;51.444;7.460;2022-10-26T00:39:55;99640.50;;;12.12;78.97
59055;BME280;44845;51.444;7.460;2022-10-26T00:42:21;99641.44;;;12.10;79.11
59055;BME280;44845;51.444;7.460;2022-10-26T00:49:46;99637.81;;;12.17;79.32
59055;BME280;44845;51.444;7.460;2022-10-26T00:52:14;99643.97;;;12.18;79.42
59055;BME280;44845;51.444;7.460;2022-10-26T00:54:42;99638.78;;;12.11;79.74
59055;BME280;44845;51.444;7.460;2022-10-26T00:57:07;99640.44;;;12.19;79.63
59055;BME280;44845;51.444;7.460;2022-10-26T00:59:33;99642.25;;;12.16;79.51
59055;BME280;44845;51.444;7.460;2022-10-26T01:01:58;99644.78;;;12.21;79.31
59055;BME280;44845;51.444;7.460;2022-10-26T01:04:24;99651.72;;;12.25;79.42
59055;BME280;44845;51.444;7.460;2022-10-26T01:06:50;99644.66;;;12.27;79.48
59055;BME280;44845;51.444;7.460;2022-10-26T01:09:16;99644.66;;;12.27;79.54
59055;BME280;44845;51.444;7.460;2022-10-26T01:11:42;99646.41;;;12.29;79.51
59055;BME280;44845;51.444;7.460;2022-10-26T01:14:09;99640.31;;;12.25;79.55
59055;BME280;44845;51.444;7.460;2022-10-26T01:22:15;99625.28;;;12.32;79.59
59055;BME280;44845;51.444;7.460;2022-10-26T01:25:11;99612.94;;;12.37;79.39
59055;BME280;44845;51.444;7.460;2022-10-26T01:27:43;99617.31;;;12.36;79.41
59055;BME280;44845;51.444;7.460;2022-10-26T01:30:22;99616.53;;;12.33;79.55
59055;BME280;44845;51.444;7.460;2022-10-26T01:33:25;99619.94;;;12.38;79.52
59055;BME280;44845;51.444;7.460;2022-10-26T01:41:43;99612.75;;;12.46;79.60
59055;BME280;44845;51.444;7.460;2022-10-26T01:44:15;99616.28;;;12.45;79.42
59055;BME280;44845;51.444;7.460;2022-10-26T01:46:44;99605.75;;;12.45;79.65
59055;BME280;44845;51.444;7.460;2022-10-26T01:49:12;99606.63;;;12.46;79.67
59055;BME280;44845;51.444;7.460;2022-10-26T01:51:41;99608.34;;;12.48;79.55
59055;BME280;44845;51.444;7.460;2022-10-26T01:54:07;99600.38;;;12.52;79.31
59055;BME280;44845;51.444;7.460;2022-10-26T01:56:36;99603.00;;;12.53;79.31
59055;BME280;44845;51.444;7.460;2022-10-26T01:59:12;99609.97;;;12.56;79.08
59055;BME280;44845;51.444;7.460;2022-10-26T02:15:24;99588.72;;;12.64;79.36
59055;BME280;44845;51.444;7.460;2022-10-26T02:20:31;99580.69;;;12.71;78.84
59055;BME280;44845;51.444;7.460;2022-10-26T02:23:00;99583.25;;;12.75;78.74
59055;BME280;44845;51.444;7.460;2022-10-26T02:25:29;99578.06;;;12.71;78.83
59055;BME280;44845;51.444;7.460;2022-10-26T02:28:02;99577.06;;;12.76;79.02
59055;BME280;44845;51.444;7.460;2022-10-26T02:30:30;99568.31;;;12.77;78.54
59055;BME280;44845;51.444;7.460;2022-10-26T02:32:58;99570.94;;;12.77;78.00
59055;BME280;44845;51.444;7.460;2022-10-26T02:35:30;99558.69;;;12.74;78.53
59055;BME280;44845;51.444;7.460;2022-10-26T02:37:58;99560.41;;;12.77;78.46
59055;BME280;44845;51.444;7.460;2022-10-26T02:40:27;99554.16;;;12.81;78.54
59055;BME280;44845;51.444;7.460;2022-10-26T02:42:55;99554.09;;;12.84;78.42
59055;BME280;44845;51.444;7.460;2022-10-26T02:45:29;99554.03;;;12.87;78.38
59055;BME280;44845;51.444;7.460;2022-10-26T02:47:56;99553.94;;;12.92;78.06
59055;BME280;44845;51.444;7.460;2022-10-26T02:50:26;99551.34;;;12.90;78.15
59055;BME280;44845;51.444;7.460;2022-10-26T02:53:17;99548.63;;;12.93;78.37
59055;BME280;44845;51.444;7.460;2022-10-26T02:55:48;99553.22;;;12.83;78.45
59055;BME280;44845;51.444;7.460;2022-10-26T02:58:19;99550.59;;;12.85;78.20
59055;BME280;44845;51.444;7.460;2022-10-26T03:00:46;99540.88;;;12.87;78.38
59055;BME280;44845;51.444;7.460;2022-10-26T03:03:12;99551.25;;;12.93;78.36
59055;BME280;44845;51.444;7.460;2022-10-26T03:05:41;99546.81;;;12.95;78.11
59055;BME280;44845;51.444;7.460;2022-10-26T03:08:07;99547.63;;;12.99;78.39
59055;BME280;44845;51.444;7.460;2022-10-26T03:10:33;99543.31;;;12.97;78.21
59055;BME280;44845;51.444;7.460;2022-10-26T03:13:00;99538.03;;;12.97;77.95
59055;BME280;44845;51.444;7.460;2022-10-26T03:15:26;99537.94;;;13.01;78.11
59055;BME280;44845;51.444;7.460;2022-10-26T03:17:51;99537.97;;;13.00;78.46
59055;BME280;44845;51.444;7.460;2022-10-26T03:20:16;99544.06;;;13.02;78.46
59055;BME280;44845;51.444;7.460;2022-10-26T03:22:42;99543.31;;;12.97;78.46
59055;BME280;44845;51.444;7.460;2022-10-26T03:25:07;99537.88;;;13.03;78.24
59055;BME280;44845;51.444;7.460;2022-10-26T03:27:33;99537.88;;;13.03;77.96
59055;BME280;44845;51.444;7.460;2022-10-26T03:29:59;99547.47;;;13.05;78.16
59055;BME280;44845;51.444;7.460;2022-10-26T03:32:24;99542.19;;;13.07;78.07
59055;BME280;44845;51.444;7.460;2022-10-26T03:34:50;99536.94;;;13.05;78.12
59055;BME280;44845;51.444;7.460;2022-10-26T03:37:15;99540.41;;;13.07;78.15
59055;BME280;44845;51.444;7.460;2022-10-26T03:39:40;99544.84;;;13.07;78.20
59055;BME280;44845;51.444;7.460;2022-10-26T03:42:06;99533.38;;;13.10;77.85
59055;BME280;44845;51.444;7.460;2022-10-26T03:44:31;99539.47;;;13.10;77.92
59055;BME280;44845;51.444;7.460;2022-10-26T03:46:56;99541.16;;;13.14;77.90
59055;BME280;44845;51.444;7.460;2022-10-26T03:49:21;99531.50;;;13.13;78.40
59055;BME280;44845;51.444;7.460;2022-10-26T03:51:47;99537.59;;;13.15;78.16
59055;BME280;44845;51.444;7.460;2022-10-26T03:54:12;99538.44;;;13.17;78.00
59055;BME280;44845;51.444;7.460;2022-10-26T03:56:37;99534.97;;;13.17;77.46
59055;BME280;44845;51.444;7.460;2022-10-26T03:59:03;99537.50;;;13.20;77.68
59055;BME280;44845;51.444;7.460;2022-10-26T04:01:28;99534.88;;;13.20;77.96
59055;BME280;44845;51.444;7.460;2022-10-26T04:03:54;99528.75;;;13.20;77.92
59055;BME280;44845;51.444;7.460;2022-10-26T04:06:19;99531.34;;;13.21;78.22
59055;BME280;44845;51.444;7.460;2022-10-26T04:08:44;99534.09;;;13.16;77.75
59055;BME280;44845;51.444;7.460;2022-10-26T04:11:10;99532.28;;;13.18;77.48
59055;BME280;44845;51.444;7.460;2022-10-26T04:13:35;99534.75;;;13.25;77.07
59055;BME280;44845;51.444;7.460;2022-10-26T04:16:00;99540.00;;;13.25;77.68
59055;BME280;44845;51.444;7.460;2022-10-26T04:18:26;99534.75;;;13.25;77.25
59055;BME280;44845;51.444;7.460;2022-10-26T04:20:51;99535.59;;;13.27;77.61
59055;BME280;44845;51.444;7.460;2022-10-26T04:23:17;99534.84;;;13.22;77.02
59055;BME280;44845;51.444;7.460;2022-10-26T04:25:43;99536.59;;;13.21;77.21
59055;BME280;44845;51.444;7.460;2022-10-26T04:28:11;99543.50;;;13.27;77.51
59055;BME280;44845;51.444;7.460;2022-10-26T04:30:37;99542.59;;;13.28;77.42
59055;BME280;44845;51.444;7.460;2022-10-26T04:33:03;99547.72;;;13.33;77.17
59055;BME280;44845;51.444;7.460;2022-10-26T04:35:29;99544.22;;;13.32;76.88
59055;BME280;44845;51.444;7.460;2022-10-26T04:37:58;99549.50;;;13.32;77.42
59055;BME280;44845;51.444;7.460;2022-10-26T04:40:24;99549.44;;;13.35;77.28
59055;BME280;44845;51.444;7.460;2022-10-26T04:42:50;99551.28;;;13.32;77.74
59055;BME280;44845;51.444;7.460;2022-10-26T04:45:15;99553.06;;;13.31;77.23
59055;BME280;44845;51.444;7.460;2022-10-26T04:47:41;99548.66;;;13.32;77.38
59055;BME280;44845;51.444;7.460;2022-10-26T04:50:08;99554.69;;;13.35;77.48
59055;BME280;44845;51.444;7.460;2022-10-26T04:52:34;99550.34;;;13.34;77.21
59055;BME280;44845;51.444;7.460;2022-10-26T04:54:59;99545.09;;;13.34;77.33
59055;BME280;44845;51.444;7.460;2022-10-26T04:57:25;99550.25;;;13.37;77.42
59055;BME280;44845;51.444;7.460;2022-10-26T04:59:50;99552.03;;;13.37;77.56
59055;BME280;44845;51.444;7.460;2022-10-26T05:02:15;99551.19;;;13.36;76.82
59055;BME280;44845;51.444;7.460;2022-10-26T05:04:41;99559.94;;;13.37;76.41
59055;BME280;44845;51.444;7.460;2022-10-26T05:07:06;99554.75;;;13.34;76.70
59055;BME280;44845;51.444;7.460;2022-10-26T05:09:31;99551.19;;;13.36;76.99
59055;BME280;44845;51.444;7.460;2022-10-26T05:11:57;99548.47;;;13.39;77.22
59055;BME280;44845;51.444;7.460;2022-10-26T05:14:22;99542.28;;;13.40;77.40
59055;BME280;44845;51.444;7.460;2022-10-26T05:16:49;99543.00;;;13.47;77.36
59055;BME280;44845;51.444;7.460;2022-10-26T05:19:15;99539.59;;;13.44;76.91
59055;BME280;44845;51.444;7.460;2022-10-26T05:21:40;99540.47;;;13.43;77.20
59055;BME280;44845;51.444;7.460;2022-10-26T05:24:05;99542.28;;;13.40;77.21
59055;BME280;44845;51.444;7.460;2022-10-26T05:26:31;99541.34;;;13.43;76.97
59055;BME280;44845;51.444;7.460;2022-10-26T05:28:56;99550.13;;;13.42;76.82
59055;BME280;44845;51.444;7.460;2022-10-26T05:31:21;99539.78;;;13.36;76.53
59055;BME280;44845;51.444;7.460;2022-10-26T05:33:48;99542.28;;;13.40;75.77
59055;BME280;44845;51.444;7.460;2022-10-26T05:36:15;99545.75;;;13.43;76.13
59055;BME280;44845;51.444;7.460;2022-10-26T05:38:40;99541.34;;;13.43;76.08
59055;BME280;44845;51.444;7.460;2022-10-26T05:41:06;99541.41;;;13.40;76.10
59055;BME280;44845;51.444;7.460;2022-10-26T05:43:31;99548.31;;;13.46;75.24
59055;BME280;44845;51.444;7.460;2022-10-26T05:45:56;99550.06;;;13.47;76.21
59055;BME280;44845;51.444;7.460;2022-10-26T05:48:22;99549.06;;;13.51;75.47
59055;BME280;44845;51.444;7.460;2022-10-26T05:50:47;99550.81;;;13.50;75.76
59055;BME280;44845;51.444;7.460;2022-10-26T05:53:12;99551.72;;;13.49;75.42
59055;BME280;44845;51.444;7.460;2022-10-26T05:55:38;99549.13;;;13.48;75.08
59055;BME280;44845;51.444;7.460;2022-10-26T05:58:09;99550.88;;;13.49;76.01
59055;BME280;44845;51.444;7.460;2022-10-26T06:00:35;99548.25;;;13.49;75.46
59055;BME280;44845;51.444;7.460;2022-10-26T06:05:51;99544.63;;;13.53;75.39
59055;BME280;44845;51.444;7.460;2022-10-26T06:08:18;99551.66;;;13.52;75.72
59055;BME280;44845;51.444;7.460;2022-10-26T06:10:44;99560.44;;;13.53;75.19
59055;BME280;44845;51.444;7.460;2022-10-26T06:13:09;99559.59;;;13.51;74.88
59055;BME280;44845;51.444;7.460;2022-10-26T06:15:44;99555.06;;;13.58;74.30
59055;BME280;44845;51.444;7.460;2022-10-26T06:23:38;99548.00;;;13.60;74.92
59055;BME280;44845;51.444;7.460;2022-10-26T06:26:12;99547.13;;;13.59;74.83
59055;BME280;44845;51.444;7.460;2022-10-26T06:28:56;99549.75;;;13.59;74.89
59055;BME280;44845;51.444;7.460;2022-10-26T06:31:26;99556.72;;;13.62;74.90
59055;BME280;44845;51.444;7.460;2022-10-26T06:33:57;99558.59;;;13.57;74.61
59055;BME280;44845;51.444;7.460;2022-10-26T06:36:25;99561.22;;;13.58;74.27
59055;BME280;44845;51.444;7.460;2022-10-26T06:39:00;99561.25;;;13.55;74.47
59055;BME280;44845;51.444;7.460;2022-10-26T06:41:26;99557.59;;;13.62;74.64
59055;BME280;44845;51.444;7.460;2022-10-26T06:43:52;99561.16;;;13.61;74.72
59055;BME280;44845;51.444;7.460;2022-10-26T06:46:23;99555.00;;;13.61;73.51
59055;BME280;44845;51.444;7.460;2022-10-26T06:48:52;99555.00;;;13.61;73.90
59055;BME280;44845;51.444;7.460;2022-10-26T06:51:18;99561.84;;;13.68;74.66
59055;BME280;44845;51.444;7.460;2022-10-26T06:56:46;99556.41;;;13.74;75.05
59055;BME280;44845;51.444;7.460;2022-10-26T06:59:25;99551.94;;;13.77;74.55
59055;BME280;44845;51.444;7.460;2022-10-26T07:01:52;99549.31;;;13.77;75.20
59055;BME280;44845;51.444;7.460;2022-10-26T07:04:18;99552.81;;;13.79;75.02
59055;BME280;44845;51.444;7.460;2022-10-26T07:06:43;99558.09;;;13.77;74.31
59055;BME280;44845;51.444;7.460;2022-10-26T07:09:08;99551.06;;;13.78;74.65
59055;BME280;44845;51.444;7.460;2022-10-26T07:11:34;99554.56;;;13.78;73.76
59055;BME280;44845;51.444;7.460;2022-10-26T07:13:59;99551.84;;;13.81;74.41
59055;BME280;44845;51.444;7.460;2022-10-26T07:16:25;99550.06;;;13.83;74.53
59055;BME280;44845;51.444;7.460;2022-10-26T07:18:50;99551.75;;;13.84;73.91
59055;BME280;44845;51.444;7.460;2022-10-26T07:21:15;99553.50;;;13.85;74.80
59055;BME280;44845;51.444;7.460;2022-10-26T07:23:40;99558.78;;;13.85;74.63
59055;BME280;44845;51.444;7.460;2022-10-26T07:26:06;99575.47;;;13.84;74.46
59055;BME280;44845;51.444;7.460;2022-10-26T07:28:31;99560.50;;;13.87;74.23
59055;BME280;44845;51.444;7.460;2022-10-26T07:30:57;99568.28;;;13.91;73.69
59055;BME280;44845;51.444;7.460;2022-10-26T07:33:22;99565.44;;;13.99;74.40
59055;BME280;44845;51.444;7.460;2022-10-26T07:35:48;99567.19;;;14.00;74.01
59055;BME280;44845;51.444;7.460;2022-10-26T07:38:13;99574.16;;;14.03;73.34
59055;BME280;44845;51.444;7.460;2022-10-26T07:40:38;99574.16;;;14.01;73.24
59055;BME280;44845;51.444;7.460;2022-10-26T07:43:04;99564.28;;;14.10;73.32
59055;BME280;44845;51.444;7.460;2022-10-26T07:45:29;99561.66;;;14.10;73.26
59055;BME280;44845;51.444;7.460;2022-10-26T07:47:55;99567.69;;;14.13;72.67
59055;BME280;44845;51.444;7.460;2022-10-26T07:50:20;99571.88;;;14.22;72.60
59055;BME280;44845;51.444;7.460;2022-10-26T07:52:45;99575.25;;;14.27;72.73
59055;BME280;44845;51.444;7.460;2022-10-26T07:55:11;99579.66;;;14.27;72.77
59055;BME280;44845;51.444;7.460;2022-10-26T07:57:37;99576.97;;;14.28;72.25
59055;BME280;44845;51.444;7.460;2022-10-26T08:00:07;99573.34;;;14.33;72.73
59055;BME280;44845;51.444;7.460;2022-10-26T08:02:32;99578.63;;;14.33;72.98
59055;BME280;44845;51.444;7.460;2022-10-26T08:04:58;99583.72;;;14.39;73.20
59055;BME280;44845;51.444;7.460;2022-10-26T08:07:23;99576.63;;;14.41;72.98
59055;BME280;44845;51.444;7.460;2022-10-26T08:09:50;99567.88;;;14.39;72.08
59055;BME280;44845;51.444;7.460;2022-10-26T08:12:16;99580.19;;;14.40;72.19
59055;BME280;44845;51.444;7.460;2022-10-26T08:14:42;99579.25;;;14.41;73.41
59055;BME280;44845;51.444;7.460;2022-10-26T08:17:07;99583.63;;;14.42;72.37
59055;BME280;44845;51.444;7.460;2022-10-26T08:19:33;99587.16;;;14.41;72.52
59055;BME280;44845;51.444;7.460;2022-10-26T08:21:58;99589.00;;;14.39;72.71
59055;BME280;44845;51.444;7.460;2022-10-26T08:24:24;99596.97;;;14.36;72.75
59055;BME280;44845;51.444;7.460;2022-10-26T08:26:49;99590.97;;;14.30;71.97
59055;BME280;44845;51.444;7.460;2022-10-26T08:29:14;99606.63;;;14.37;72.87
59055;BME280;44845;51.444;7.460;2022-10-26T08:31:40;99604.81;;;14.39;73.08
59055;BME280;44845;51.444;7.460;2022-10-26T08:34:05;99592.63;;;14.35;73.64
59055;BME280;44845;51.444;7.460;2022-10-26T08:36:30;99590.88;;;14.34;73.50
59055;BME280;44845;51.444;7.460;2022-10-26T08:38:56;99583.97;;;14.29;73.71
59055;BME280;44845;51.444;7.460;2022-10-26T08:41:37;99582.22;;;14.28;73.20
59055;BME280;44845;51.444;7.460;2022-10-26T08:46:52;99573.34;;;14.33;73.79
59055;BME280;44845;51.444;7.460;2022-10-26T08:49:22;99575.06;;;14.34;73.43
59055;BME280;44845;51.444;7.460;2022-10-26T08:51:51;99579.22;;;14.43;73.98
59055;BME280;44845;51.444;7.460;2022-10-26T08:54:26;99581.75;;;14.47;74.69
59055;BME280;44845;51.444;7.460;2022-10-26T08:57:01;99588.00;;;14.43;74.31
59055;BME280;44845;51.444;7.460;2022-10-26T08:59:39;99591.41;;;14.47;74.44
59055;BME280;44845;51.444;7.460;2022-10-26T09:02:16;99599.28;;;14.48;73.15
59055;BME280;44845;51.444;7.460;2022-10-26T09:04:41;99597.69;;;14.43;73.56
59055;BME280;44845;51.444;7.460;2022-10-26T09:12:54;99605.44;;;14.49;73.92
59055;BME280;44845;51.444;7.460;2022-10-26T09:15:31;99606.31;;;14.49;74.51
59055;BME280;44845;51.444;7.460;2022-10-26T09:18:06;99614.97;;;14.55;74.76
59055;BME280;44845;51.444;7.460;2022-10-26T09:26:55;99622.81;;;14.56;75.00
59055;BME280;44845;51.444;7.460;2022-10-26T09:29:29;99620.13;;;14.58;74.17
59055;BME280;44845;51.444;7.460;2022-10-26T09:31:59;99616.59;;;14.59;74.48
59055;BME280;44845;51.444;7.460;2022-10-26T09:34:30;99615.59;;;14.63;75.10
59055;BME280;44845;51.444;7.460;2022-10-26T09:37:10;99612.06;;;14.64;74.27
59055;BME280;44845;51.444;7.460;2022-10-26T09:39:42;99621.88;;;14.59;74.21
59055;BME280;44845;51.444;7.460;2022-10-26T09:42:41;99626.13;;;14.63;75.12
59055;BME280;44845;51.444;7.460;2022-10-26T09:45:18;99627.75;;;14.69;75.63
59055;BME280;44845;51.444;7.460;2022-10-26T09:47:50;99637.50;;;14.65;75.10
59055;BME280;44845;51.444;7.460;2022-10-26T09:50:25;99640.94;;;14.69;75.60
59055;BME280;44845;51.444;7.460;2022-10-26T09:52:51;99652.25;;;14.72;75.53
59055;BME280;44845;51.444;7.460;2022-10-26T09:55:16;99646.09;;;14.73;75.03
59055;BME280;44845;51.444;7.460;2022-10-26T09:57:45;99656.66;;;14.73;75.40
59055;BME280;44845;51.444;7.460;2022-10-26T10:00:14;99667.13;;;14.77;75.62
59055;BME280;44845;51.444;7.460;2022-10-26T10:02:42;99667.88;;;14.82;75.45
59055;BME280;44845;51.444;7.460;2022-10-26T10:07:48;99680.81;;;14.91;76.00
59055;BME280;44845;51.444;7.460;2022-10-26T10:10:19;99698.31;;;14.95;76.16
59055;BME280;44845;51.444;7.460;2022-10-26T10:12:45;99700.13;;;14.93;75.87
59055;BME280;44845;51.444;7.460;2022-10-26T10:15:21;99703.50;;;14.99;75.76
59055;BME280;44845;51.444;7.460;2022-10-26T10:17:51;99714.00;;;15.02;75.63
59055;BME280;44845;51.444;7.460;2022-10-26T10:20:18;99712.06;;;15.07;75.52
59055;BME280;44845;51.444;7.460;2022-10-26T10:22:56;99715.13;;;15.23;75.49
59055;BME280;44845;51.444;7.460;2022-10-26T10:25:30;99723.94;;;15.24;75.55
59055;BME280;44845;51.444;7.460;2022-10-26T10:27:56;99723.72;;;15.30;75.46
59055;BME280;44845;51.444;7.460;2022-10-26T10:30:28;99726.44;;;15.28;75.42
59055;BME280;44845;51.444;7.460;2022-10-26T10:33:04;99728.06;;;15.33;75.22
59055;BME280;44845;51.444;7.460;2022-10-26T10:35:30;99728.94;;;15.33;74.62
59055;BME280;44845;51.444;7.460;2022-10-26T10:37:56;99734.94;;;15.38;75.08
59055;BME280;44845;51.444;7.460;2022-10-26T10:40:26;99727.03;;;15.38;74.72
59055;BME280;44845;51.444;7.460;2022-10-26T10:43:03;99733.84;;;15.46;75.09
59055;BME280;44845;51.444;7.460;2022-10-26T10:45:29;99734.69;;;15.46;74.53
59055;BME280;44845;51.444;7.460;2022-10-26T10:48:21;99729.31;;;15.49;75.10
59055;BME280;44845;51.444;7.460;2022-10-26T10:51:05;99729.25;;;15.52;75.22
59055;BME280;44845;51.444;7.460;2022-10-26T10:53:48;99732.84;;;15.50;75.56
59055;BME280;44845;51.444;7.460;2022-10-26T11:02:27;99730.41;;;15.42;75.71
59055;BME280;44845;51.444;7.460;2022-10-26T11:07:10;99741.81;;;15.44;76.02
59055;BME280;44845;51.444;7.460;2022-10-26T11:09:40;99742.75;;;15.41;75.64
59055;BME280;44845;51.444;7.460;2022-10-26T11:12:12;99742.75;;;15.41;75.67
59055;BME280;44845;51.444;7.460;2022-10-26T11:14:49;99745.38;;;15.43;76.20
59055;BME280;44845;51.444;7.460;2022-10-26T11:17:21;99737.31;;;15.48;76.21
59055;BME280;44845;51.444;7.460;2022-10-26T11:19:55;99743.47;;;15.48;75.61
59055;BME280;44845;51.444;7.460;2022-10-26T11:22:30;99759.22;;;15.51;75.76
59055;BME280;44845;51.444;7.460;2022-10-26T11:25:21;99765.44;;;15.49;75.96
59055;BME280;44845;51.444;7.460;2022-10-26T11:27:52;99749.44;;;15.55;76.30
59055;BME280;44845;51.444;7.460;2022-10-26T11:30:21;99764.56;;;15.50;76.38
59055;BME280;44845;51.444;7.460;2022-10-26T11:32:53;99775.06;;;15.51;76.67
59055;BME280;44845;51.444;7.460;2022-10-26T11:35:44;99770.56;;;15.55;76.63
59055;BME280;44845;51.444;7.460;2022-10-26T11:40:53;99771.25;;;15.62;76.14
59055;BME280;44845;51.444;7.460;2022-10-26T11:43:37;99771.31;;;15.59;76.29
59055;BME280;44845;51.444;7.460;2022-10-26T11:48:55;99780.94;;;15.61;76.38
59055;BME280;44845;51.444;7.460;2022-10-26T11:53:56;99778.16;;;15.66;77.28
59055;BME280;44845;51.444;7.460;2022-10-26T11:56:30;99790.38;;;15.70;77.52
59055;BME280;44845;51.444;7.460;2022-10-26T11:58:58;99790.34;;;15.72;76.92
59055;BME280;44845;51.444;7.460;2022-10-26T12:01:24;99800.84;;;15.73;76.86
59055;BME280;44845;51.444;7.460;2022-10-26T12:03:53;99797.38;;;15.73;76.77
59055;BME280;44845;51.444;7.460;2022-10-26T12:06:24;99795.63;;;15.72;75.80
59055;BME280;44845;51.444;7.460;2022-10-26T12:09:40;99801.72;;;15.74;76.05
59055;BME280;44845;51.444;7.460;2022-10-26T12:14:44;99801.56;;;15.80;75.98
59055;BME280;44845;51.444;7.460;2022-10-26T12:17:34;99801.41;;;15.85;75.99
59055;BME280;44845;51.444;7.460;2022-10-26T12:22:54;99802.88;;;15.94;76.09
59055;BME280;44845;51.444;7.460;2022-10-26T12:25:21;99808.19;;;15.94;76.10
59055;BME280;44845;51.444;7.460;2022-10-26T12:37:53;99823.03;;;15.98;76.01
59055;BME280;44845;51.444;7.460;2022-10-26T12:45:44;99821.47;;;15.92;76.56
59055;BME280;44845;51.444;7.460;2022-10-26T12:50:49;99819.53;;;15.97;77.03
59055;BME280;44845;51.444;7.460;2022-10-26T12:53:16;99822.22;;;15.96;76.88
59055;BME280;44845;51.444;7.460;2022-10-26T12:58:27;99829.28;;;15.95;77.28
59055;BME280;44845;51.444;7.460;2022-10-26T13:01:34;99839.91;;;15.94;77.25
59055;BME280;44845;51.444;7.460;2022-10-26T13:07:16;99835.41;;;15.97;77.76
59055;BME280;44845;51.444;7.460;2022-10-26T13:10:26;99846.03;;;15.96;77.83
59055;BME280;44845;51.444;7.460;2022-10-26T13:15:17;99848.41;;;16.05;78.06
59055;BME280;44845;51.444;7.460;2022-10-26T13:18:01;99848.31;;;16.08;77.70
59055;BME280;44845;51.444;7.460;2022-10-26T13:20:33;99849.25;;;16.07;78.08
59055;BME280;44845;51.444;7.460;2022-10-26T13:23:01;99854.47;;;16.09;77.86
59055;BME280;44845;51.444;7.460;2022-10-26T13:25:27;99857.19;;;16.07;77.80
59055;BME280;44845;51.444;7.460;2022-10-26T13:28:01;99862.34;;;16.10;77.67
59055;BME280;44845;51.444;7.460;2022-10-26T13:32:59;99871.03;;;16.16;77.85
59055;BME280;44845;51.444;7.460;2022-10-26T13:35:26;99865.81;;;16.13;78.18
59055;BME280;44845;51.444;7.460;2022-10-26T13:37:55;99864.03;;;16.15;78.07
59055;BME280;44845;51.444;7.460;2022-10-26T13:40:26;99867.34;;;16.20;77.42
59055;BME280;44845;51.444;7.460;2022-10-26T13:42:56;99870.16;;;16.15;78.00
59055;BME280;44845;51.444;7.460;2022-10-26T13:45:48;99867.47;;;16.17;78.15
59055;BME280;44845;51.444;7.460;2022-10-26T13:48:29;99866.41;;;16.23;77.74
59055;BME280;44845;51.444;7.460;2022-10-26T13:51:01;99867.34;;;16.21;77.90
59055;BME280;44845;51.444;7.460;2022-10-26T13:53:38;99871.75;;;16.21;78.38
59055;BME280;44845;51.444;7.460;2022-10-26T13:58:50;99878.72;;;16.24;78.63
59055;BME280;44845;51.444;7.460;2022-10-26T14:01:18;99881.44;;;16.22;78.69
59055;BME280;44845;51.444;7.460;2022-10-26T14:03:46;99879.69;;;16.21;78.13
59055;BME280;44845;51.444;7.460;2022-10-26T14:06:14;99877.94;;;16.20;77.63
59055;BME280;44845;51.444;7.460;2022-10-26T14:08:41;99879.59;;;16.24;77.78
59055;BME280;44845;51.444;7.460;2022-10-26T14:11:12;99870.66;;;16.28;77.15
59055;BME280;44845;51.444;7.460;2022-10-26T14:13:38;99877.78;;;16.26;77.49
59055;BME280;44845;51.444;7.460;2022-10-26T14:16:07;99881.31;;;16.25;77.58
59055;BME280;44845;51.444;7.460;2022-10-26T14:18:33;99888.34;;;16.26;77.95
59055;BME280;44845;51.444;7.460;2022-10-26T14:21:07;99888.25;;;16.29;78.02
59055;BME280;44845;51.444;7.460;2022-10-26T14:23:45;99881.22;;;16.28;77.52
59055;BME280;44845;51.444;7.460;2022-10-26T14:26:19;99888.25;;;16.29;76.80
59055;BME280;44845;51.444;7.460;2022-10-26T14:28:47;99897.09;;;16.28;77.36
59055;BME280;44845;51.444;7.460;2022-10-26T14:31:31;99894.41;;;16.30;77.00
59055;BME280;44845;51.444;7.460;2022-10-26T14:33:59;99898.06;;;16.26;76.83
59055;BME280;44845;51.444;7.460;2022-10-26T14:36:57;99902.47;;;16.25;77.11
59055;BME280;44845;51.444;7.460;2022-10-26T14:39:34;99901.72;;;16.21;76.95
59055;BME280;44845;51.444;7.460;2022-10-26T14:42:07;99902.63;;;16.20;76.53
59055;BME280;44845;51.444;7.460;2022-10-26T14:44:35;99913.06;;;16.25;76.76
59055;BME280;44845;51.444;7.460;2022-10-26T14:47:01;99908.66;;;16.26;76.63
59055;BME280;44845;51.444;7.460;2022-10-26T14:49:27;99911.28;;;16.26;76.87
59055;BME280;44845;51.444;7.460;2022-10-26T14:51:57;99908.66;;;16.26;76.69
59055;BME280;44845;51.444;7.460;2022-10-26T14:54:25;99912.16;;;16.26;75.41
59055;BME280;44845;51.444;7.460;2022-10-26T14:56:51;99909.53;;;16.26;76.07
59055;BME280;44845;51.444;7.460;2022-10-26T15:04:28;99927.41;;;16.18;76.47
59055;BME280;44845;51.444;7.460;2022-10-26T15:07:00;99922.09;;;16.18;76.64
59055;BME280;44845;51.444;7.460;2022-10-26T15:09:49;99925.69;;;16.17;76.73
59055;BME280;44845;51.444;7.460;2022-10-26T15:15:07;99931.25;;;16.07;76.60
59055;BME280;44845;51.444;7.460;2022-10-26T15:17:40;99933.13;;;16.02;76.75